sensor_id;sensor_type;location;lat;lon;timestamp;pressure;altitude;pressure_sealevel;temperature;humidity
76808;BME280;65758;45.458;11.062;2023-07-31T00:01:43;100673.86;;;24.55;65.88
76808;BME280;65758;45.458;11.062;2023-07-31T00:04:10;100671.38;;;24.54;65.69
76808;BME280;65758;45.458;11.062;2023-07-31T00:06:37;100665.98;;;24.53;65.53
76808;BME280;65758;45.458;11.062;2023-07-31T00:09:04;100666.99;;;24.52;65.72
76808;BME280;65758;45.458;11.062;2023-07-31T00:11:31;100667.15;;;24.51;65.70
76808;BME280;65758;45.458;11.062;2023-07-31T00:13:58;100664.94;;;24.48;65.81
76808;BME280;65758;45.458;11.062;2023-07-31T00:16:24;100667.33;;;24.45;65.72
76808;BME280;65758;45.458;11.062;2023-07-31T00:18:51;100664.86;;;24.42;65.93
76808;BME280;65758;45.458;11.062;2023-07-31T00:21:18;100667.61;;;24.38;65.88
76808;BME280;65758;45.458;11.062;2023-07-31T00:23:45;100670.56;;;24.37;65.92
76808;BME280;65758;45.458;11.062;2023-07-31T00:26:11;100672.98;;;24.36;65.95
76808;BME280;65758;45.458;11.062;2023-07-31T00:28:38;100675.02;;;24.35;65.97
76808;BME280;65758;45.458;11.062;2023-07-31T00:31:05;100677.48;;;24.33;65.96
76808;BME280;65758;45.458;11.062;2023-07-31T00:33:34;100677.38;;;24.31;66.08
76808;BME280;65758;45.458;11.062;2023-07-31T00:36:02;100679.34;;;24.29;65.84
76808;BME280;65758;45.458;11.062;2023-07-31T00:38:29;100680.55;;;24.24;65.96
76808;BME280;65758;45.458;11.062;2023-07-31T00:40:56;100679.34;;;24.20;66.00
76808;BME280;65758;45.458;11.062;2023-07-31T00:43:24;100683.73;;;24.17;66.01
76808;BME280;65758;45.458;11.062;2023-07-31T00:45:51;100682.11;;;24.16;66.10
76808;BME280;65758;45.458;11.062;2023-07-31T00:48:18;100681.35;;;24.18;65.91
76808;BME280;65758;45.458;11.062;2023-07-31T00:50:45;100683.34;;;24.18;66.07
76808;BME280;65758;45.458;11.062;2023-07-31T00:53:13;100681.54;;;24.17;65.90
76808;BME280;65758;45.458;11.062;2023-07-31T00:55:40;100677.45;;;24.17;66.02
76808;BME280;65758;45.458;11.062;2023-07-31T00:58:07;100675.23;;;24.16;65.82
76808;BME280;65758;45.458;11.062;2023-07-31T01:00:33;100671.94;;;24.14;65.74
76808;BME280;65758;45.458;11.062;2023-07-31T01:03:00;100667.02;;;24.14;65.73
76808;BME280;65758;45.458;11.062;2023-07-31T01:06:07;100664.67;;;24.14;65.72
76808;BME280;65758;45.458;11.062;2023-07-31T01:11:19;100679.90;;;24.13;65.97
76808;BME280;65758;45.458;11.062;2023-07-31T01:13:46;100679.14;;;24.09;65.96
76808;BME280;65758;45.458;11.062;2023-07-31T01:16:14;100680.21;;;24.07;66.06
76808;BME280;65758;45.458;11.062;2023-07-31T01:18:41;100684.02;;;24.06;66.02
76808;BME280;65758;45.458;11.062;2023-07-31T01:26:36;100688.89;;;24.03;66.12
76808;BME280;65758;45.458;11.062;2023-07-31T01:29:28;100685.44;;;24.03;65.94
76808;BME280;65758;45.458;11.062;2023-07-31T01:32:01;100686.35;;;24.02;66.12
76808;BME280;65758;45.458;11.062;2023-07-31T01:34:30;100683.98;;;24.01;66.05
76808;BME280;65758;45.458;11.062;2023-07-31T01:36:58;100683.25;;;24.01;66.07
76808;BME280;65758;45.458;11.062;2023-07-31T01:39:25;100681.83;;;24.00;66.13
76808;BME280;65758;45.458;11.062;2023-07-31T01:41:51;100679.77;;;23.97;66.20
76808;BME280;65758;45.458;11.062;2023-07-31T01:44:20;100676.90;;;23.96;66.31
76808;BME280;65758;45.458;11.062;2023-07-31T01:46:46;100667.45;;;23.96;66.31
76808;BME280;65758;45.458;11.062;2023-07-31T01:49:13;100662.61;;;23.93;66.35
76808;BME280;65758;45.458;11.062;2023-07-31T01:51:40;100659.14;;;23.92;66.42
76808;BME280;65758;45.458;11.062;2023-07-31T01:54:07;100652.57;;;23.92;66.42
76808;BME280;65758;45.458;11.062;2023-07-31T01:56:34;100654.67;;;23.91;66.44
76808;BME280;65758;45.458;11.062;2023-07-31T01:59:00;100653.72;;;23.91;66.54
76808;BME280;65758;45.458;11.062;2023-07-31T02:01:27;100656.39;;;23.91;66.54
76808;BME280;65758;45.458;11.062;2023-07-31T02:03:54;100650.77;;;23.91;66.33
76808;BME280;65758;45.458;11.062;2023-07-31T02:06:22;100653.23;;;23.88;66.50
76808;BME280;65758;45.458;11.062;2023-07-31T02:08:49;100656.28;;;23.87;66.26
76808;BME280;65758;45.458;11.062;2023-07-31T02:11:16;100659.33;;;23.86;66.23
76808;BME280;65758;45.458;11.062;2023-07-31T02:13:42;100657.32;;;23.85;66.16
76808;BME280;65758;45.458;11.062;2023-07-31T02:16:09;100651.63;;;23.83;66.10
76808;BME280;65758;45.458;11.062;2023-07-31T02:18:36;100649.84;;;23.79;66.00
76808;BME280;65758;45.458;11.062;2023-07-31T02:21:03;100651.26;;;23.74;66.12
76808;BME280;65758;45.458;11.062;2023-07-31T02:23:30;100660.88;;;23.72;66.31
76808;BME280;65758;45.458;11.062;2023-07-31T02:25:57;100658.95;;;23.71;66.19
76808;BME280;65758;45.458;11.062;2023-07-31T02:28:24;100657.48;;;23.69;66.25
76808;BME280;65758;45.458;11.062;2023-07-31T02:30:51;100654.52;;;23.67;66.32
76808;BME280;65758;45.458;11.062;2023-07-31T02:33:18;100660.36;;;23.66;66.49
76808;BME280;65758;45.458;11.062;2023-07-31T02:35:45;100658.50;;;23.64;66.39
76808;BME280;65758;45.458;11.062;2023-07-31T02:38:12;100656.05;;;23.64;66.35
76808;BME280;65758;45.458;11.062;2023-07-31T02:40:40;100650.80;;;23.63;66.35
76808;BME280;65758;45.458;11.062;2023-07-31T02:43:08;100644.41;;;23.62;66.38
76808;BME280;65758;45.458;11.062;2023-07-31T02:45:35;100637.73;;;23.61;66.36
76808;BME280;65758;45.458;11.062;2023-07-31T02:48:02;100637.73;;;23.61;66.26
76808;BME280;65758;45.458;11.062;2023-07-31T02:50:29;100636.81;;;23.60;66.16
76808;BME280;65758;45.458;11.062;2023-07-31T02:52:56;100640.23;;;23.59;66.33
76808;BME280;65758;45.458;11.062;2023-07-31T02:55:23;100637.46;;;23.56;66.32
76808;BME280;65758;45.458;11.062;2023-07-31T02:57:50;100640.17;;;23.55;66.57
76808;BME280;65758;45.458;11.062;2023-07-31T03:00:20;100638.50;;;23.55;66.34
76808;BME280;65758;45.458;11.062;2023-07-31T03:02:46;100642.08;;;23.55;66.38
76808;BME280;65758;45.458;11.062;2023-07-31T03:05:13;100645.23;;;23.54;66.35
76808;BME280;65758;45.458;11.062;2023-07-31T03:07:41;100647.56;;;23.52;66.33
76808;BME280;65758;45.458;11.062;2023-07-31T03:10:08;100650.27;;;23.51;66.22
76808;BME280;65758;45.458;11.062;2023-07-31T03:12:35;100649.04;;;23.51;66.32
76808;BME280;65758;45.458;11.062;2023-07-31T03:15:02;100650.55;;;23.49;66.52
76808;BME280;65758;45.458;11.062;2023-07-31T03:17:29;100651.48;;;23.47;66.36
76808;BME280;65758;45.458;11.062;2023-07-31T03:19:56;100653.86;;;23.45;66.36
76808;BME280;65758;45.458;11.062;2023-07-31T03:22:22;100655.07;;;23.44;66.48
76808;BME280;65758;45.458;11.062;2023-07-31T03:24:50;100658.39;;;23.43;66.49
76808;BME280;65758;45.458;11.062;2023-07-31T03:27:16;100660.38;;;23.40;66.50
76808;BME280;65758;45.458;11.062;2023-07-31T03:29:43;100661.84;;;23.37;66.45
76808;BME280;65758;45.458;11.062;2023-07-31T03:32:10;100663.31;;;23.36;66.50
76808;BME280;65758;45.458;11.062;2023-07-31T03:34:37;100665.73;;;23.35;66.47
76808;BME280;65758;45.458;11.062;2023-07-31T03:37:05;100666.97;;;23.35;66.57
76808;BME280;65758;45.458;11.062;2023-07-31T03:39:32;100667.96;;;23.35;66.65
76808;BME280;65758;45.458;11.062;2023-07-31T03:41:59;100668.67;;;23.37;66.56
76808;BME280;65758;45.458;11.062;2023-07-31T03:44:28;100667.62;;;23.36;66.47
76808;BME280;65758;45.458;11.062;2023-07-31T03:46:55;100667.80;;;23.35;66.39
76808;BME280;65758;45.458;11.062;2023-07-31T03:49:21;100668.15;;;23.34;66.47
76808;BME280;65758;45.458;11.062;2023-07-31T03:51:49;100672.71;;;23.33;66.54
76808;BME280;65758;45.458;11.062;2023-07-31T03:54:16;100671.55;;;23.30;66.67
76808;BME280;65758;45.458;11.062;2023-07-31T03:56:43;100669.08;;;23.28;66.77
76808;BME280;65758;45.458;11.062;2023-07-31T03:59:10;100669.82;;;23.27;66.76
76808;BME280;65758;45.458;11.062;2023-07-31T04:01:37;100665.31;;;23.27;66.92
76808;BME280;65758;45.458;11.062;2023-07-31T04:04:03;100667.38;;;23.26;66.99
76808;BME280;65758;45.458;11.062;2023-07-31T04:06:30;100669.14;;;23.26;67.04
76808;BME280;65758;45.458;11.062;2023-07-31T04:08:57;100668.89;;;23.26;67.00
76808;BME280;65758;45.458;11.062;2023-07-31T04:11:24;100670.98;;;23.26;67.01
76808;BME280;65758;45.458;11.062;2023-07-31T04:13:51;100667.77;;;23.26;66.89
76808;BME280;65758;45.458;11.062;2023-07-31T04:16:17;100667.98;;;23.25;66.75
76808;BME280;65758;45.458;11.062;2023-07-31T04:18:44;100666.59;;;23.24;66.72
76808;BME280;65758;45.458;11.062;2023-07-31T04:21:11;100670.11;;;23.24;66.64
76808;BME280;65758;45.458;11.062;2023-07-31T04:23:38;100669.66;;;23.25;66.68
76808;BME280;65758;45.458;11.062;2023-07-31T04:26:05;100669.77;;;23.25;66.55
76808;BME280;65758;45.458;11.062;2023-07-31T04:28:32;100668.00;;;23.24;66.61
76808;BME280;65758;45.458;11.062;2023-07-31T04:30:59;100671.33;;;23.23;66.48
76808;BME280;65758;45.458;11.062;2023-07-31T04:33:26;100672.43;;;23.23;66.42
76808;BME280;65758;45.458;11.062;2023-07-31T04:35:53;100679.73;;;23.23;66.57
76808;BME280;65758;45.458;11.062;2023-07-31T04:38:21;100678.94;;;23.25;66.55
76808;BME280;65758;45.458;11.062;2023-07-31T04:40:48;100678.55;;;23.24;66.52
76808;BME280;65758;45.458;11.062;2023-07-31T04:43:15;100677.73;;;23.23;66.42
76808;BME280;65758;45.458;11.062;2023-07-31T04:45:45;100676.38;;;23.23;66.34
76808;BME280;65758;45.458;11.062;2023-07-31T04:48:12;100677.33;;;23.24;66.24
76808;BME280;65758;45.458;11.062;2023-07-31T04:50:39;100678.79;;;23.26;66.27
76808;BME280;65758;45.458;11.062;2023-07-31T04:53:06;100679.38;;;23.27;66.23
76808;BME280;65758;45.458;11.062;2023-07-31T04:55:33;100675.33;;;23.29;66.24
76808;BME280;65758;45.458;11.062;2023-07-31T04:58:00;100673.65;;;23.31;66.07
76808;BME280;65758;45.458;11.062;2023-07-31T05:00:27;100671.50;;;23.34;66.12
76808;BME280;65758;45.458;11.062;2023-07-31T05:02:53;100673.70;;;23.39;66.02
76808;BME280;65758;45.458;11.062;2023-07-31T05:05:20;100675.27;;;23.42;66.03
76808;BME280;65758;45.458;11.062;2023-07-31T05:07:47;100674.45;;;23.44;65.98
76808;BME280;65758;45.458;11.062;2023-07-31T05:10:14;100673.51;;;23.48;65.88
76808;BME280;65758;45.458;11.062;2023-07-31T05:12:41;100674.52;;;23.53;65.89
76808;BME280;65758;45.458;11.062;2023-07-31T05:15:08;100679.21;;;23.60;65.75
76808;BME280;65758;45.458;11.062;2023-07-31T05:17:35;100678.39;;;23.69;65.55
76808;BME280;65758;45.458;11.062;2023-07-31T05:20:02;100676.67;;;23.78;65.48
76808;BME280;65758;45.458;11.062;2023-07-31T05:22:29;100676.71;;;23.88;65.42
76808;BME280;65758;45.458;11.062;2023-07-31T05:24:56;100678.65;;;23.97;65.19
76808;BME280;65758;45.458;11.062;2023-07-31T05:27:23;100683.73;;;24.07;64.82
76808;BME280;65758;45.458;11.062;2023-07-31T05:29:49;100686.52;;;24.16;64.72
76808;BME280;65758;45.458;11.062;2023-07-31T05:32:16;100688.59;;;24.25;64.53
76808;BME280;65758;45.458;11.062;2023-07-31T05:34:43;100691.94;;;24.34;64.22
76808;BME280;65758;45.458;11.062;2023-07-31T05:37:10;100691.97;;;24.41;63.94
76808;BME280;65758;45.458;11.062;2023-07-31T05:39:38;100691.56;;;24.48;63.76
76808;BME280;65758;45.458;11.062;2023-07-31T05:42:05;100694.40;;;24.55;63.66
76808;BME280;65758;45.458;11.062;2023-07-31T05:44:32;100692.63;;;24.63;63.79
76808;BME280;65758;45.458;11.062;2023-07-31T05:46:59;100691.05;;;24.69;63.80
76808;BME280;65758;45.458;11.062;2023-07-31T05:49:25;100692.20;;;24.76;63.91
76808;BME280;65758;45.458;11.062;2023-07-31T05:51:52;100694.55;;;24.83;63.93
76808;BME280;65758;45.458;11.062;2023-07-31T05:54:19;100698.31;;;24.89;63.53
76808;BME280;65758;45.458;11.062;2023-07-31T05:56:46;100699.84;;;24.94;63.57
76808;BME280;65758;45.458;11.062;2023-07-31T05:59:13;100696.93;;;24.98;63.48
76808;BME280;65758;45.458;11.062;2023-07-31T06:01:40;100698.56;;;25.02;63.47
76808;BME280;65758;45.458;11.062;2023-07-31T06:04:07;100699.91;;;25.07;63.34
76808;BME280;65758;45.458;11.062;2023-07-31T06:06:34;100696.58;;;25.12;62.98
76808;BME280;65758;45.458;11.062;2023-07-31T06:09:01;100694.20;;;25.17;63.00
76808;BME280;65758;45.458;11.062;2023-07-31T06:11:28;100697.93;;;25.23;62.86
76808;BME280;65758;45.458;11.062;2023-07-31T06:13:55;100700.35;;;25.30;62.70
76808;BME280;65758;45.458;11.062;2023-07-31T06:16:22;100706.92;;;25.37;63.49
76808;BME280;65758;45.458;11.062;2023-07-31T06:18:49;100711.38;;;25.43;63.73
76808;BME280;65758;45.458;11.062;2023-07-31T06:21:16;100711.39;;;25.48;63.61
76808;BME280;65758;45.458;11.062;2023-07-31T06:23:43;100713.51;;;25.53;63.79
76808;BME280;65758;45.458;11.062;2023-07-31T06:26:10;100714.70;;;25.58;63.65
76808;BME280;65758;45.458;11.062;2023-07-31T06:28:37;100711.52;;;25.61;63.64
76808;BME280;65758;45.458;11.062;2023-07-31T06:31:04;100713.86;;;25.65;63.71
76808;BME280;65758;45.458;11.062;2023-07-31T06:33:31;100717.07;;;25.70;63.71
76808;BME280;65758;45.458;11.062;2023-07-31T06:35:58;100717.83;;;25.76;63.86
76808;BME280;65758;45.458;11.062;2023-07-31T06:38:26;100719.34;;;25.83;63.94
76808;BME280;65758;45.458;11.062;2023-07-31T06:40:53;100719.21;;;25.91;63.89
76808;BME280;65758;45.458;11.062;2023-07-31T06:43:20;100715.36;;;25.97;63.84
76808;BME280;65758;45.458;11.062;2023-07-31T06:45:47;100719.38;;;26.04;63.94
76808;BME280;65758;45.458;11.062;2023-07-31T06:48:17;100721.01;;;26.11;64.05
76808;BME280;65758;45.458;11.062;2023-07-31T06:50:44;100721.95;;;26.20;63.62
76808;BME280;65758;45.458;11.062;2023-07-31T06:53:10;100723.34;;;26.26;63.26
76808;BME280;65758;45.458;11.062;2023-07-31T06:55:37;100723.05;;;26.30;63.42
76808;BME280;65758;45.458;11.062;2023-07-31T06:58:04;100720.17;;;26.35;63.24
76808;BME280;65758;45.458;11.062;2023-07-31T07:00:31;100719.63;;;26.43;63.02
76808;BME280;65758;45.458;11.062;2023-07-31T07:02:59;100722.90;;;26.57;62.89
76808;BME280;65758;45.458;11.062;2023-07-31T07:05:26;100727.14;;;26.75;62.70
76808;BME280;65758;45.458;11.062;2023-07-31T07:07:53;100729.19;;;26.94;62.31
76808;BME280;65758;45.458;11.062;2023-07-31T07:10:20;100724.48;;;27.14;61.83
76808;BME280;65758;45.458;11.062;2023-07-31T07:12:48;100727.27;;;27.40;61.06
76808;BME280;65758;45.458;11.062;2023-07-31T07:15:15;100726.10;;;27.70;60.56
76808;BME280;65758;45.458;11.062;2023-07-31T07:17:42;100727.52;;;27.99;59.81
76808;BME280;65758;45.458;11.062;2023-07-31T07:20:09;100730.42;;;28.22;59.11
76808;BME280;65758;45.458;11.062;2023-07-31T07:22:36;100732.28;;;28.43;58.43
76808;BME280;65758;45.458;11.062;2023-07-31T07:25:04;100731.64;;;28.57;57.65
76808;BME280;65758;45.458;11.062;2023-07-31T07:27:31;100735.61;;;28.59;57.38
76808;BME280;65758;45.458;11.062;2023-07-31T07:29:57;100735.88;;;28.58;57.53
76808;BME280;65758;45.458;11.062;2023-07-31T07:32:24;100732.63;;;28.58;57.30
76808;BME280;65758;45.458;11.062;2023-07-31T07:34:51;100734.95;;;28.57;57.43
76808;BME280;65758;45.458;11.062;2023-07-31T07:37:18;100730.10;;;28.59;56.95
76808;BME280;65758;45.458;11.062;2023-07-31T07:39:45;100728.94;;;28.62;56.67
76808;BME280;65758;45.458;11.062;2023-07-31T07:42:11;100727.66;;;28.67;56.92
76808;BME280;65758;45.458;11.062;2023-07-31T07:44:38;100724.23;;;28.76;56.44
76808;BME280;65758;45.458;11.062;2023-07-31T07:47:06;100722.71;;;28.83;56.21
76808;BME280;65758;45.458;11.062;2023-07-31T07:49:34;100722.42;;;28.86;56.13
76808;BME280;65758;45.458;11.062;2023-07-31T07:52:02;100719.08;;;28.83;55.86
76808;BME280;65758;45.458;11.062;2023-07-31T07:54:30;100723.14;;;28.84;56.10
76808;BME280;65758;45.458;11.062;2023-07-31T07:56:57;100720.88;;;28.90;56.03
76808;BME280;65758;45.458;11.062;2023-07-31T07:59:24;100718.70;;;29.02;56.12
76808;BME280;65758;45.458;11.062;2023-07-31T08:01:51;100714.52;;;29.19;55.56
76808;BME280;65758;45.458;11.062;2023-07-31T08:04:18;100718.35;;;29.37;55.05
76808;BME280;65758;45.458;11.062;2023-07-31T08:06:44;100714.23;;;29.57;54.47
76808;BME280;65758;45.458;11.062;2023-07-31T08:09:11;100712.84;;;29.64;53.22
76808;BME280;65758;45.458;11.062;2023-07-31T08:11:38;100715.83;;;29.64;51.62
76808;BME280;65758;45.458;11.062;2023-07-31T08:14:05;100709.63;;;29.64;50.47
76808;BME280;65758;45.458;11.062;2023-07-31T08:16:32;100711.21;;;29.66;49.68
76808;BME280;65758;45.458;11.062;2023-07-31T08:18:59;100710.20;;;29.78;49.14
76808;BME280;65758;45.458;11.062;2023-07-31T08:21:26;100717.30;;;29.85;49.26
76808;BME280;65758;45.458;11.062;2023-07-31T08:23:53;100718.29;;;29.86;48.68
76808;BME280;65758;45.458;11.062;2023-07-31T08:26:19;100721.25;;;29.83;48.54
76808;BME280;65758;45.458;11.062;2023-07-31T08:28:47;100721.17;;;29.81;48.62
76808;BME280;65758;45.458;11.062;2023-07-31T08:31:14;100722.83;;;29.81;48.45
76808;BME280;65758;45.458;11.062;2023-07-31T08:33:41;100723.06;;;29.91;48.09
76808;BME280;65758;45.458;11.062;2023-07-31T08:36:08;100726.26;;;30.06;47.87
76808;BME280;65758;45.458;11.062;2023-07-31T08:38:35;100728.95;;;30.29;47.52
76808;BME280;65758;45.458;11.062;2023-07-31T08:41:05;100724.35;;;30.51;47.33
76808;BME280;65758;45.458;11.062;2023-07-31T08:43:32;100716.55;;;30.72;46.59
76808;BME280;65758;45.458;11.062;2023-07-31T08:46:00;100719.36;;;30.93;46.61
76808;BME280;65758;45.458;11.062;2023-07-31T08:48:29;100722.80;;;31.13;46.01
76808;BME280;65758;45.458;11.062;2023-07-31T08:50:57;100727.83;;;31.30;45.22
76808;BME280;65758;45.458;11.062;2023-07-31T08:53:24;100722.38;;;31.45;45.25
76808;BME280;65758;45.458;11.062;2023-07-31T08:55:52;100719.70;;;31.61;44.99
76808;BME280;65758;45.458;11.062;2023-07-31T08:58:20;100719.08;;;31.68;43.80
76808;BME280;65758;45.458;11.062;2023-07-31T09:00:47;100717.23;;;31.73;43.68
76808;BME280;65758;45.458;11.062;2023-07-31T09:03:18;100713.23;;;31.82;42.70
76808;BME280;65758;45.458;11.062;2023-07-31T09:05:46;100717.56;;;31.88;42.35
76808;BME280;65758;45.458;11.062;2023-07-31T09:08:17;100720.58;;;31.96;42.56
76808;BME280;65758;45.458;11.062;2023-07-31T09:10:45;100711.03;;;32.10;42.47
76808;BME280;65758;45.458;11.062;2023-07-31T09:13:14;100709.06;;;32.24;42.39
76808;BME280;65758;45.458;11.062;2023-07-31T09:15:43;100708.41;;;32.36;42.03
76808;BME280;65758;45.458;11.062;2023-07-31T09:18:11;100706.29;;;32.47;41.48
76808;BME280;65758;45.458;11.062;2023-07-31T09:20:38;100701.17;;;32.58;41.54
76808;BME280;65758;45.458;11.062;2023-07-31T09:23:13;100699.23;;;32.71;40.97
76808;BME280;65758;45.458;11.062;2023-07-31T09:25:44;100692.91;;;32.71;41.12
76808;BME280;65758;45.458;11.062;2023-07-31T09:28:11;100682.81;;;32.77;40.95
76808;BME280;65758;45.458;11.062;2023-07-31T09:30:50;100684.40;;;32.84;40.54
76808;BME280;65758;45.458;11.062;2023-07-31T09:33:18;100684.45;;;32.87;40.11
76808;BME280;65758;45.458;11.062;2023-07-31T09:35:47;100677.52;;;32.89;39.87
76808;BME280;65758;45.458;11.062;2023-07-31T09:38:17;100678.90;;;32.94;40.03
76808;BME280;65758;45.458;11.062;2023-07-31T09:40:46;100679.91;;;33.01;40.31
76808;BME280;65758;45.458;11.062;2023-07-31T09:43:17;100677.96;;;33.10;39.82
76808;BME280;65758;45.458;11.062;2023-07-31T09:45:46;100678.52;;;33.17;40.00
76808;BME280;65758;45.458;11.062;2023-07-31T09:48:15;100678.13;;;33.24;39.71
76808;BME280;65758;45.458;11.062;2023-07-31T09:50:45;100677.78;;;33.33;40.08
76808;BME280;65758;45.458;11.062;2023-07-31T09:53:13;100669.42;;;33.43;39.71
76808;BME280;65758;45.458;11.062;2023-07-31T09:55:41;100674.73;;;33.51;40.09
76808;BME280;65758;45.458;11.062;2023-07-31T09:58:10;100674.50;;;33.59;39.88
76808;BME280;65758;45.458;11.062;2023-07-31T10:00:38;100672.19;;;33.65;39.57
76808;BME280;65758;45.458;11.062;2023-07-31T10:03:08;100673.52;;;33.67;38.73
76808;BME280;65758;45.458;11.062;2023-07-31T10:05:45;100682.53;;;33.63;38.66
76808;BME280;65758;45.458;11.062;2023-07-31T10:08:18;100676.71;;;33.69;38.82
76808;BME280;65758;45.458;11.062;2023-07-31T10:10:46;100683.24;;;33.77;38.68
76808;BME280;65758;45.458;11.062;2023-07-31T10:13:13;100676.14;;;33.87;38.26
76808;BME280;65758;45.458;11.062;2023-07-31T10:15:41;100671.71;;;33.95;38.09
76808;BME280;65758;45.458;11.062;2023-07-31T10:18:11;100670.48;;;33.95;37.56
76808;BME280;65758;45.458;11.062;2023-07-31T10:20:40;100669.27;;;33.95;38.08
76808;BME280;65758;45.458;11.062;2023-07-31T10:23:08;100668.84;;;33.99;37.38
76808;BME280;65758;45.458;11.062;2023-07-31T10:25:36;100666.48;;;34.00;37.39
76808;BME280;65758;45.458;11.062;2023-07-31T10:28:03;100666.10;;;34.00;37.64
76808;BME280;65758;45.458;11.062;2023-07-31T10:30:32;100659.16;;;34.04;37.43
76808;BME280;65758;45.458;11.062;2023-07-31T10:33:02;100660.35;;;34.09;37.16
76808;BME280;65758;45.458;11.062;2023-07-31T10:35:29;100657.45;;;34.12;37.09
76808;BME280;65758;45.458;11.062;2023-07-31T10:38:09;100664.20;;;34.11;37.18
76808;BME280;65758;45.458;11.062;2023-07-31T10:40:37;100662.85;;;34.14;36.79
76808;BME280;65758;45.458;11.062;2023-07-31T10:43:05;100648.09;;;34.20;36.48
76808;BME280;65758;45.458;11.062;2023-07-31T10:45:36;100655.47;;;34.19;36.57
76808;BME280;65758;45.458;11.062;2023-07-31T10:48:07;100653.61;;;34.20;36.49
76808;BME280;65758;45.458;11.062;2023-07-31T10:50:47;100657.17;;;34.27;37.00
76808;BME280;65758;45.458;11.062;2023-07-31T10:55:50;100655.36;;;34.39;36.82
76808;BME280;65758;45.458;11.062;2023-07-31T10:58:21;100653.14;;;34.44;36.28
76808;BME280;65758;45.458;11.062;2023-07-31T11:00:48;100650.66;;;34.40;35.79
76808;BME280;65758;45.458;11.062;2023-07-31T11:03:19;100649.46;;;34.34;36.00
76808;BME280;65758;45.458;11.062;2023-07-31T11:08:30;100648.80;;;34.48;36.82
76808;BME280;65758;45.458;11.062;2023-07-31T11:13:32;100654.77;;;34.61;37.17
76808;BME280;65758;45.458;11.062;2023-07-31T11:15:59;100654.77;;;34.66;37.17
76808;BME280;65758;45.458;11.062;2023-07-31T11:18:27;100650.29;;;34.75;37.19
76808;BME280;65758;45.458;11.062;2023-07-31T11:20:54;100646.53;;;34.81;36.95
76808;BME280;65758;45.458;11.062;2023-07-31T11:23:21;100644.10;;;34.81;36.97
76808;BME280;65758;45.458;11.062;2023-07-31T11:25:49;100646.17;;;34.86;37.01
76808;BME280;65758;45.458;11.062;2023-07-31T11:28:18;100645.10;;;34.94;36.72
76808;BME280;65758;45.458;11.062;2023-07-31T11:30:46;100651.02;;;35.01;36.60
76808;BME280;65758;45.458;11.062;2023-07-31T11:33:13;100644.14;;;35.06;36.23
76808;BME280;65758;45.458;11.062;2023-07-31T11:35:46;100639.80;;;35.13;36.33
76808;BME280;65758;45.458;11.062;2023-07-31T11:38:24;100635.17;;;35.22;36.53
76808;BME280;65758;45.458;11.062;2023-07-31T11:40:58;100633.50;;;35.27;35.99
76808;BME280;65758;45.458;11.062;2023-07-31T11:43:25;100635.99;;;35.24;36.15
76808;BME280;65758;45.458;11.062;2023-07-31T11:45:56;100636.55;;;35.23;36.03
76808;BME280;65758;45.458;11.062;2023-07-31T11:48:25;100629.23;;;35.21;36.31
76808;BME280;65758;45.458;11.062;2023-07-31T11:50:57;100627.09;;;35.28;36.42
76808;BME280;65758;45.458;11.062;2023-07-31T11:53:28;100618.27;;;35.38;36.22
76808;BME280;65758;45.458;11.062;2023-07-31T11:55:59;100619.69;;;35.43;35.58
76808;BME280;65758;45.458;11.062;2023-07-31T11:58:27;100617.23;;;35.42;35.60
76808;BME280;65758;45.458;11.062;2023-07-31T12:00:56;100611.40;;;35.44;35.37
76808;BME280;65758;45.458;11.062;2023-07-31T12:03:23;100609.69;;;35.42;35.71
76808;BME280;65758;45.458;11.062;2023-07-31T12:05:50;100611.88;;;35.42;36.35
76808;BME280;65758;45.458;11.062;2023-07-31T12:08:21;100613.52;;;35.45;36.32
76808;BME280;65758;45.458;11.062;2023-07-31T12:10:50;100609.65;;;35.49;36.09
76808;BME280;65758;45.458;11.062;2023-07-31T12:13:22;100606.48;;;35.54;35.93
76808;BME280;65758;45.458;11.062;2023-07-31T12:15:54;100598.02;;;35.54;35.94
76808;BME280;65758;45.458;11.062;2023-07-31T12:18:25;100591.75;;;35.51;35.23
76808;BME280;65758;45.458;11.062;2023-07-31T12:20:59;100585.23;;;35.45;35.45
76808;BME280;65758;45.458;11.062;2023-07-31T12:23:31;100585.70;;;35.43;35.69
76808;BME280;65758;45.458;11.062;2023-07-31T12:26:12;100588.47;;;35.45;35.92
76808;BME280;65758;45.458;11.062;2023-07-31T12:28:44;100583.76;;;35.46;36.02
76808;BME280;65758;45.458;11.062;2023-07-31T12:31:18;100581.29;;;35.39;36.16
76808;BME280;65758;45.458;11.062;2023-07-31T12:33:47;100574.71;;;35.43;36.14
76808;BME280;65758;45.458;11.062;2023-07-31T12:36:18;100569.52;;;35.47;35.94
76808;BME280;65758;45.458;11.062;2023-07-31T12:38:46;100564.81;;;35.45;35.77
76808;BME280;65758;45.458;11.062;2023-07-31T12:41:13;100555.95;;;35.51;35.57
76808;BME280;65758;45.458;11.062;2023-07-31T12:43:41;100551.62;;;35.61;35.19
76808;BME280;65758;45.458;11.062;2023-07-31T12:46:08;100548.01;;;35.70;35.18
76808;BME280;65758;45.458;11.062;2023-07-31T12:48:37;100537.70;;;35.76;34.90
76808;BME280;65758;45.458;11.062;2023-07-31T12:51:04;100538.20;;;35.79;34.79
76808;BME280;65758;45.458;11.062;2023-07-31T12:53:32;100540.39;;;35.79;34.78
76808;BME280;65758;45.458;11.062;2023-07-31T12:55:59;100543.66;;;35.84;35.08
76808;BME280;65758;45.458;11.062;2023-07-31T12:58:26;100539.93;;;35.90;34.88
76808;BME280;65758;45.458;11.062;2023-07-31T13:00:53;100537.73;;;35.96;35.00